Temp: 17.8°C   Baro: 1017.7mb
  Wind: 0.0mph   Dir: W (274°)
  Rain: 0.2mm (0.0mm/hr)
  Solar: 0W/m2  Hum: 86%
 
Bath Spa Weather Station Historical Data
Daily Summary for July 10, 2020 Units:  Both    English   Metric
Daily Weekly Monthly Yearly Custom
  High: Low: Average:
Temperature: 63.8 °F /  17.7 °C 52.2 °F /  11.2 °C 57.9 °F /  14.4 °C
Dew Point: 53.6 °F /  12 °C 46.1 °F /  7.8 °C 49.6 °F /  9.8 °C
Humidity: 92% 57.4% 75%
Wind Speed: 9.4mph /  15.1km/h - 3.3mph /  5.3km/h
Wind Gust: 17mph /  27.4km/h - -
Wind- - WNW
Pressure: 30.25 in /  1024.3 hPa 29.95 in /  1014.1 hPa -
Precipitation: 0.01 in /  0.25 mm    
Historical Graphs
 
 
Tabular Data for July 10, 2020
Time Temperature Dew Point Pressure Wind Wind Speed Wind Gust Humidity Rainfall Rate (Hourly) solar
00:04 56.1 °F /  13.4 °C 53.6 °F /  12 °C 29.95in /  1014.1hPa NNW 2.7mph /  4.3km/h 8mph /  12.9km/h 91% 0.00in /  0mm 0 W/m2
00:09 56.1 °F /  13.4 °C 53.6 °F /  12 °C 29.95in /  1014.1hPa North 3.2mph /  5.1km/h 8mph /  12.9km/h 91% 0.00in /  0mm 0 W/m2
00:14 56 °F /  13.3 °C 53.5 °F /  11.9 °C 29.95in /  1014.1hPa NNW 3.8mph /  6.1km/h 8mph /  12.9km/h 91% 0.00in /  0mm 0 W/m2
00:19 55.9 °F /  13.3 °C 53.4 °F /  11.9 °C 29.95in /  1014.1hPa NNW 3.3mph /  5.3km/h 9mph /  14.5km/h 91% 0.00in /  0mm 0 W/m2
00:24 56 °F /  13.3 °C 53.5 °F /  11.9 °C 29.95in /  1014.1hPa NNW 2.8mph /  4.5km/h 5mph /  8km/h 91% 0.00in /  0mm 0 W/m2
00:29 56 °F /  13.3 °C 53.5 °F /  11.9 °C 29.96in /  1014.4hPa NW 2.1mph /  3.4km/h 6mph /  9.7km/h 91% 0.00in /  0mm 0 W/m2
00:33 56.1 °F /  13.4 °C 53.6 °F /  12 °C 29.96in /  1014.4hPa NNW 2.2mph /  3.5km/h 6mph /  9.7km/h 91% 0.00in /  0mm 0 W/m2
00:39 56.1 °F /  13.4 °C 53.6 °F /  12 °C 29.96in /  1014.4hPa NNW 1.6mph /  2.6km/h 4mph /  6.4km/h 91% 0.00in /  0mm 0 W/m2
00:42 56.1 °F /  13.4 °C 53.6 °F /  12 °C 29.96in /  1014.4hPa NW 3.6mph /  5.8km/h 7mph /  11.3km/h 91% 0.00in /  0mm 0 W/m2
00:49 56.1 °F /  13.4 °C 53.6 °F /  12 °C 29.96in /  1014.4hPa NW 4mph /  6.4km/h 8mph /  12.9km/h 91% 0.00in /  0mm 0 W/m2
00:54 56.1 °F /  13.4 °C 53.6 °F /  12 °C 29.96in /  1014.4hPa NW 2.8mph /  4.5km/h 5mph /  8km/h 91% 0.00in /  0mm 0 W/m2
00:59 56.1 °F /  13.4 °C 53.6 °F /  12 °C 29.96in /  1014.4hPa NW 3mph /  4.8km/h 6mph /  9.7km/h 91% 0.00in /  0mm 0 W/m2
01:04 55.9 °F /  13.3 °C 53.4 °F /  11.9 °C 29.96in /  1014.4hPa NNW 2.7mph /  4.3km/h 7mph /  11.3km/h 91% 0.00in /  0mm 0 W/m2
01:09 55.9 °F /  13.3 °C 53.4 °F /  11.9 °C 29.96in /  1014.4hPa North 2mph /  3.2km/h 6mph /  9.7km/h 91% 0.00in /  0mm 0 W/m2
01:14 55.9 °F /  13.3 °C 53.4 °F /  11.9 °C 29.96in /  1014.4hPa NNW 1.9mph /  3.1km/h 10mph /  16.1km/h 91% 0.00in /  0mm 0 W/m2
01:19 55.9 °F /  13.3 °C 53.4 °F /  11.9 °C 29.96in /  1014.4hPa NNW 4.4mph /  7.1km/h 10mph /  16.1km/h 91% 0.00in /  0mm 0 W/m2
01:24 55.9 °F /  13.3 °C 53.4 °F /  11.9 °C 29.96in /  1014.4hPa NNW 2.8mph /  4.5km/h 6mph /  9.7km/h 91% 0.00in /  0mm 0 W/m2
01:29 55.9 °F /  13.3 °C 53.4 °F /  11.9 °C 29.96in /  1014.4hPa North 1.4mph /  2.3km/h 4mph /  6.4km/h 91% 0.00in /  0mm 0 W/m2
01:33 55.9 °F /  13.3 °C 53.4 °F /  11.9 °C 29.97in /  1014.8hPa North 2.2mph /  3.5km/h 4mph /  6.4km/h 91% 0.00in /  0mm 0 W/m2
01:39 55.9 °F /  13.3 °C 53.4 °F /  11.9 °C 29.97in /  1014.8hPa North 0.9mph /  1.4km/h 4mph /  6.4km/h 91% 0.00in /  0mm 0 W/m2
01:44 55.8 °F /  13.2 °C 53.2 °F /  11.8 °C 29.97in /  1014.8hPa North 2.8mph /  4.5km/h 5mph /  8km/h 91% 0.00in /  0mm 0 W/m2
01:49 55.8 °F /  13.2 °C 53.2 °F /  11.8 °C 29.97in /  1014.8hPa North 1.2mph /  1.9km/h 6mph /  9.7km/h 91% 0.00in /  0mm 0 W/m2
01:54 55.8 °F /  13.2 °C 53.2 °F /  11.8 °C 29.97in /  1014.8hPa NNE 1.3mph /  2.1km/h 6mph /  9.7km/h 91% 0.00in /  0mm 0 W/m2
01:59 55.6 °F /  13.1 °C 53.1 °F /  11.7 °C 29.97in /  1014.8hPa NNW 2.5mph /  4km/h 7mph /  11.3km/h 91% 0.00in /  0mm 0 W/m2
02:04 55.6 °F /  13.1 °C 53.1 °F /  11.7 °C 29.97in /  1014.8hPa NW 2mph /  3.2km/h 7mph /  11.3km/h 91% 0.00in /  0mm 0 W/m2
02:09 55.6 °F /  13.1 °C 53.1 °F /  11.7 °C 29.97in /  1014.8hPa NW 3.2mph /  5.1km/h 8mph /  12.9km/h 91% 0.00in /  0mm 0 W/m2
02:14 55.6 °F /  13.1 °C 53.1 °F /  11.7 °C 29.97in /  1014.8hPa North 2.3mph /  3.7km/h 5mph /  8km/h 91% 0.00in /  0mm 0 W/m2
02:19 55.6 °F /  13.1 °C 53.1 °F /  11.7 °C 29.97in /  1014.8hPa NNW 2.5mph /  4km/h 4mph /  6.4km/h 91% 0.00in /  0mm 0 W/m2
02:24 55.5 °F /  13.1 °C 53 °F /  11.7 °C 29.97in /  1014.8hPa NNW 3.6mph /  5.8km/h 6mph /  9.7km/h 91% 0.00in /  0mm 0 W/m2
02:29 55.5 °F /  13.1 °C 53 °F /  11.7 °C 29.97in /  1014.8hPa NNW 3.8mph /  6.1km/h 8mph /  12.9km/h 91% 0.00in /  0mm 0 W/m2
02:34 55.5 °F /  13.1 °C 53 °F /  11.7 °C 29.97in /  1014.8hPa NNW 1.7mph /  2.7km/h 7mph /  11.3km/h 91% 0.00in /  0mm 0 W/m2
02:39 55.4 °F /  13 °C 52.9 °F /  11.6 °C 29.97in /  1014.8hPa NW 2mph /  3.2km/h 4mph /  6.4km/h 91% 0.00in /  0mm 0 W/m2
02:44 55.5 °F /  13.1 °C 53 °F /  11.7 °C 29.97in /  1014.8hPa NNW 2mph /  3.2km/h 5mph /  8km/h 91% 0.00in /  0mm 0 W/m2
02:49 55.4 °F /  13 °C 52.9 °F /  11.6 °C 29.97in /  1014.8hPa NNW 3.2mph /  5.1km/h 6mph /  9.7km/h 91% 0.00in /  0mm 0 W/m2
02:54 55.3 °F /  12.9 °C 52.8 °F /  11.6 °C 29.97in /  1014.8hPa NNW 2.5mph /  4km/h 5mph /  8km/h 91% 0.00in /  0mm 0 W/m2
02:59 55.3 °F /  12.9 °C 52.8 °F /  11.6 °C 29.97in /  1014.8hPa NNW 1.6mph /  2.6km/h 5mph /  8km/h 91% 0.00in /  0mm 0 W/m2
03:04 55.2 °F /  12.9 °C 52.7 °F /  11.5 °C 29.97in /  1014.8hPa NNW 1.8mph /  2.9km/h 5mph /  8km/h 91% 0.00in /  0mm 0 W/m2
03:09 55.2 °F /  12.9 °C 52.7 °F /  11.5 °C 29.97in /  1014.8hPa NNW 1.4mph /  2.3km/h 5mph /  8km/h 91% 0.00in /  0mm 0 W/m2
03:14 55 °F /  12.8 °C 52.5 °F /  11.4 °C 29.97in /  1014.8hPa NNW 0.6mph /  1km/h 5mph /  8km/h 91% 0.00in /  0mm 0 W/m2
03:19 54.9 °F /  12.7 °C 52.3 °F /  11.3 °C 29.98in /  1015.1hPa NNW 1.3mph /  2.1km/h 4mph /  6.4km/h 91% 0.00in /  0mm 0 W/m2
03:24 54.7 °F /  12.6 °C 52.2 °F /  11.2 °C 29.98in /  1015.1hPa NNW 1.2mph /  1.9km/h 3mph /  4.8km/h 91% 0.00in /  0mm 0 W/m2
03:29 54.4 °F /  12.4 °C 51.9 °F /  11.1 °C 29.98in /  1015.1hPa NW 2.8mph /  4.5km/h 6mph /  9.7km/h 91% 0.00in /  0mm 0 W/m2
03:34 54.2 °F /  12.3 °C 51.7 °F /  10.9 °C 29.98in /  1015.1hPa WNW 1.3mph /  2.1km/h 6mph /  9.7km/h 91% 0.00in /  0mm 0 W/m2
03:39 54.1 °F /  12.3 °C 51.6 °F /  10.9 °C 29.98in /  1015.1hPa WNW 0.8mph /  1.3km/h 4mph /  6.4km/h 91% 0.00in /  0mm 0 W/m2
03:44 54.1 °F /  12.3 °C 51.6 °F /  10.9 °C 29.98in /  1015.1hPa WNW 0.4mph /  0.6km/h 2mph /  3.2km/h 91% 0.00in /  0mm 0 W/m2
03:49 54 °F /  12.2 °C 51.4 °F /  10.8 °C 29.98in /  1015.1hPa WNW 0.4mph /  0.6km/h 2mph /  3.2km/h 91% 0.00in /  0mm 0 W/m2
03:54 54 °F /  12.2 °C 51.4 °F /  10.8 °C 29.98in /  1015.1hPa WNW 0.2mph /  0.3km/h 3mph /  4.8km/h 91% 0.00in /  0mm 0 W/m2
03:59 54 °F /  12.2 °C 51.4 °F /  10.8 °C 29.98in /  1015.1hPa Calm     91% 0.00in /  0mm 0 W/m2
04:04 53.8 °F /  12.1 °C 51.3 °F /  10.7 °C 29.98in /  1015.1hPa Calm     91% 0.00in /  0mm 0 W/m2
04:09 53.8 °F /  12.1 °C 51.3 °F /  10.7 °C 29.98in /  1015.1hPa Calm     91% 0.00in /  0mm 0 W/m2
04:14 53.6 °F /  12 °C 51.1 °F /  10.6 °C 29.98in /  1015.1hPa Calm     91% 0.00in /  0mm 0 W/m2
04:19 53.4 °F /  11.9 °C 50.9 °F /  10.5 °C 29.98in /  1015.1hPa Calm     91% 0.00in /  0mm 0 W/m2
04:24 53.2 °F /  11.8 °C 50.7 °F /  10.4 °C 29.99in /  1015.5hPa Calm     91% 0.00in /  0mm 0 W/m2
04:29 53.1 °F /  11.7 °C 50.5 °F /  10.3 °C 29.99in /  1015.5hPa NW 2.4mph /  3.9km/h 5mph /  8km/h 91% 0.00in /  0mm 0 W/m2
04:34 53.3 °F /  11.8 °C 50.9 °F /  10.5 °C 29.99in /  1015.5hPa NNW 2.6mph /  4.2km/h 5mph /  8km/h 91.4% 0.00in /  0mm 0 W/m2
04:39 53.4 °F /  11.9 °C 51.1 °F /  10.6 °C 29.99in /  1015.5hPa NNW 2.2mph /  3.5km/h 8mph /  12.9km/h 92% 0.00in /  0mm 0 W/m2
04:44 53.6 °F /  12 °C 51.3 °F /  10.7 °C 29.99in /  1015.5hPa NW 2.6mph /  4.2km/h 8mph /  12.9km/h 92% 0.00in /  0mm 0 W/m2
04:49 53.6 °F /  12 °C 51.3 °F /  10.7 °C 29.99in /  1015.5hPa NW 2.8mph /  4.5km/h 5mph /  8km/h 92% 0.00in /  0mm 0 W/m2
04:54 53.8 °F /  12.1 °C 51.4 °F /  10.8 °C 30.00in /  1015.8hPa NW 3.6mph /  5.8km/h 6mph /  9.7km/h 92% 0.00in /  0mm 0 W/m2
04:58 53.8 °F /  12.1 °C 51.4 °F /  10.8 °C 29.99in /  1015.5hPa NNW 3.5mph /  5.6km/h 6mph /  9.7km/h 92% 0.00in /  0mm 0 W/m2
05:04 53.6 °F /  12 °C 51.3 °F /  10.7 °C 29.99in /  1015.5hPa NNW 2.6mph /  4.2km/h 5mph /  8km/h 92% 0.00in /  0mm 0 W/m2
05:09 53.6 °F /  12 °C 51.3 °F /  10.7 °C 29.99in /  1015.5hPa NNW 1.9mph /  3.1km/h 6mph /  9.7km/h 92% 0.00in /  0mm 5 W/m2
05:14 53.4 °F /  11.9 °C 51.1 °F /  10.6 °C 30.00in /  1015.8hPa NNW 0.6mph /  1km/h 3mph /  4.8km/h 92% 0.00in /  0mm 5 W/m2
05:19 53.4 °F /  11.9 °C 51.1 °F /  10.6 °C 30.00in /  1015.8hPa NNW 1.1mph /  1.8km/h 3mph /  4.8km/h 92% 0.00in /  0mm 9 W/m2
05:24 53.2 °F /  11.8 °C 50.7 °F /  10.4 °C 30.00in /  1015.8hPa NNW 2.2mph /  3.5km/h 3mph /  4.8km/h 91% 0.00in /  0mm 9 W/m2
05:29 53.1 °F /  11.7 °C 50.6 °F /  10.3 °C 30.01in /  1016.1hPa NNW 2.4mph /  3.9km/h 3mph /  4.8km/h 91.4% 0.00in /  0mm 12 W/m2
05:34 53.1 °F /  11.7 °C 50.7 °F /  10.4 °C 30.01in /  1016.1hPa Calm   3mph /  4.8km/h 92% 0.00in /  0mm 14 W/m2
05:39 53.1 °F /  11.7 °C 50.7 °F /  10.4 °C 30.01in /  1016.1hPa Calm     92% 0.00in /  0mm 18 W/m2
05:44 52.9 °F /  11.6 °C 50.5 °F /  10.3 °C 30.01in /  1016.1hPa Calm     92% 0.00in /  0mm 19 W/m2
05:49 52.8 °F /  11.6 °C 50.5 °F /  10.3 °C 30.01in /  1016.1hPa Calm     92% 0.00in /  0mm 21 W/m2
05:54 52.6 °F /  11.4 °C 50.3 °F /  10.2 °C 30.02in /  1016.5hPa NNW 0.4mph /  0.6km/h 2mph /  3.2km/h 92% 0.00in /  0mm 26 W/m2
05:59 52.4 °F /  11.3 °C 50.1 °F /  10.1 °C 30.02in /  1016.5hPa Calm   1mph /  1.6km/h 92% 0.00in /  0mm 33 W/m2
06:04 52.3 °F /  11.3 °C 50 °F /  10 °C 30.01in /  1016.1hPa NNW 0.8mph /  1.3km/h 3mph /  4.8km/h 92% 0.00in /  0mm 40 W/m2
06:09 52.3 °F /  11.3 °C 50 °F /  10 °C 30.02in /  1016.5hPa Calm     92% 0.00in /  0mm 47 W/m2
06:14 52.3 °F /  11.3 °C 50 °F /  10 °C 30.02in /  1016.5hPa NNW 0.7mph /  1.1km/h 2mph /  3.2km/h 92% 0.00in /  0mm 46 W/m2
06:19 52.3 °F /  11.3 °C 50 °F /  10 °C 30.02in /  1016.5hPa NNW 0.8mph /  1.3km/h 2mph /  3.2km/h 92% 0.00in /  0mm 49 W/m2
06:24 52.2 °F /  11.2 °C 49.8 °F /  9.9 °C 30.02in /  1016.5hPa NNW 0.8mph /  1.3km/h 2mph /  3.2km/h 92% 0.00in /  0mm 63 W/m2
06:29 52.2 °F /  11.2 °C 49.9 °F /  9.9 °C 30.02in /  1016.5hPa NW 1.2mph /  1.9km/h 4mph /  6.4km/h 92% 0.00in /  0mm 83 W/m2
06:34 52.3 °F /  11.3 °C 49.9 °F /  9.9 °C 30.03in /  1016.8hPa WNW 3.9mph /  6.3km/h 7mph /  11.3km/h 91.4% 0.00in /  0mm 84 W/m2
06:39 52.3 °F /  11.3 °C 49.8 °F /  9.9 °C 30.03in /  1016.8hPa West 3.7mph /  6km/h 6mph /  9.7km/h 91% 0.00in /  0mm 113 W/m2
06:44 52.5 °F /  11.4 °C 50 °F /  10 °C 30.03in /  1016.8hPa WNW 1.8mph /  2.9km/h 5mph /  8km/h 91% 0.00in /  0mm 172 W/m2
06:49 52.5 °F /  11.4 °C 49.8 °F /  9.9 °C 30.03in /  1016.8hPa NW 1.9mph /  3.1km/h 4mph /  6.4km/h 90.6% 0.00in /  0mm 181 W/m2
06:54 53 °F /  11.7 °C 50.1 °F /  10.1 °C 30.03in /  1016.8hPa WNW 1.6mph /  2.6km/h 6mph /  9.7km/h 90% 0.00in /  0mm 195 W/m2
06:59 53.3 °F /  11.8 °C 50.1 °F /  10.1 °C 30.04in /  1017.2hPa NW 3.2mph /  5.1km/h 7mph /  11.3km/h 89% 0.00in /  0mm 221 W/m2
07:04 53.4 °F /  11.9 °C 49.8 °F /  9.9 °C 30.04in /  1017.2hPa NW 3.6mph /  5.8km/h 8mph /  12.9km/h 87.4% 0.00in /  0mm 225 W/m2
07:09 53.8 °F /  12.1 °C 49.6 °F /  9.8 °C 30.04in /  1017.2hPa NNW 2.8mph /  4.5km/h 6mph /  9.7km/h 86% 0.00in /  0mm 190 W/m2
07:14 53.8 °F /  12.1 °C 49.3 °F /  9.6 °C 30.04in /  1017.2hPa NW 3.2mph /  5.1km/h 7mph /  11.3km/h 84.5% 0.00in /  0mm 125 W/m2
07:19 53.6 °F /  12 °C 48.7 °F /  9.3 °C 30.04in /  1017.2hPa NW 3.2mph /  5.1km/h 5mph /  8km/h 83.2% 0.00in /  0mm 218 W/m2
07:24 53.8 °F /  12.1 °C 48.4 °F /  9.1 °C 30.04in /  1017.2hPa NW 2mph /  3.2km/h 5mph /  8km/h 82% 0.00in /  0mm 174 W/m2
07:29 53.9 °F /  12.2 °C 48.5 °F /  9.2 °C 30.04in /  1017.2hPa NW 2.4mph /  3.9km/h 5mph /  8km/h 82% 0.00in /  0mm 241 W/m2
07:34 54 °F /  12.2 °C 48.2 °F /  9 °C 30.04in /  1017.2hPa NNW 2.9mph /  4.7km/h 5mph /  8km/h 81% 0.00in /  0mm 202 W/m2
07:39 54.1 °F /  12.3 °C 48.1 °F /  8.9 °C 30.04in /  1017.2hPa NW 5.6mph /  9km/h 9mph /  14.5km/h 80.2% 0.00in /  0mm 181 W/m2
07:44 54.3 °F /  12.4 °C 48 °F /  8.9 °C 30.05in /  1017.5hPa NW 2.6mph /  4.2km/h 6mph /  9.7km/h 79.2% 0.00in /  0mm 174 W/m2
07:49 54.5 °F /  12.5 °C 48.1 °F /  8.9 °C 30.05in /  1017.5hPa WNW 2mph /  3.2km/h 7mph /  11.3km/h 78.8% 0.00in /  0mm 149 W/m2
07:54 54.5 °F /  12.5 °C 47.7 °F /  8.7 °C 30.05in /  1017.5hPa NW 4.4mph /  7.1km/h 11mph /  17.7km/h 77.6% 0.00in /  0mm 156 W/m2
07:59 54.3 °F /  12.4 °C 46.9 °F /  8.3 °C 30.05in /  1017.5hPa NW 2.8mph /  4.5km/h 9mph /  14.5km/h 76% 0.00in /  0mm 167 W/m2
08:04 54.5 °F /  12.5 °C 47 °F /  8.3 °C 30.05in /  1017.5hPa NW 3.9mph /  6.3km/h 10mph /  16.1km/h 75.8% 0.00in /  0mm 162 W/m2
08:09 54.3 °F /  12.4 °C 46.6 °F /  8.1 °C 30.06in /  1017.8hPa NNW 4.4mph /  7.1km/h 9mph /  14.5km/h 75% 0.00in /  0mm 199 W/m2
08:14 54.5 °F /  12.5 °C 46.7 °F /  8.2 °C 30.06in /  1017.8hPa NNW 3.7mph /  6km/h 7mph /  11.3km/h 74.8% 0.00in /  0mm 485 W/m2
08:19 55 °F /  12.8 °C 47.1 °F /  8.4 °C 30.06in /  1017.8hPa NW 1.6mph /  2.6km/h 6mph /  9.7km/h 74.8% 0.00in /  0mm 339 W/m2
08:24 55.2 °F /  12.9 °C 47.2 °F /  8.4 °C 30.06in /  1017.8hPa NW 2.5mph /  4km/h 6mph /  9.7km/h 74.3% 0.00in /  0mm 411 W/m2
08:29 55.4 °F /  13 °C 47.3 °F /  8.5 °C 30.06in /  1017.8hPa North 3.7mph /  6km/h 8mph /  12.9km/h 74% 0.00in /  0mm 543 W/m2
08:34 55.7 °F /  13.2 °C 47.2 °F /  8.4 °C 30.06in /  1017.8hPa North 4.5mph /  7.2km/h 9mph /  14.5km/h 73% 0.00in /  0mm 241 W/m2
08:39 55.3 °F /  12.9 °C 46.8 °F /  8.2 °C 30.06in /  1017.8hPa NW 4mph /  6.4km/h 9mph /  14.5km/h 73% 0.00in /  0mm 216 W/m2
08:44 55.2 °F /  12.9 °C 46.8 °F /  8.2 °C 30.06in /  1017.8hPa NNW 2.6mph /  4.2km/h 7mph /  11.3km/h 73% 0.00in /  0mm 192 W/m2
08:49 55.3 °F /  12.9 °C 46.9 °F /  8.3 °C 30.07in /  1018.2hPa NW 2.6mph /  4.2km/h 5mph /  8km/h 73.2% 0.00in /  0mm 227 W/m2
08:54 55.5 °F /  13.1 °C 47.2 °F /  8.4 °C 30.07in /  1018.2hPa NW 3.4mph /  5.5km/h 8mph /  12.9km/h 73.6% 0.00in /  0mm 295 W/m2
08:59 55.6 °F /  13.1 °C 47.4 °F /  8.6 °C 30.07in /  1018.2hPa NNW 3.3mph /  5.3km/h 7mph /  11.3km/h 73.8% 0.00in /  0mm 378 W/m2
09:04 55.9 °F /  13.3 °C 47.6 °F /  8.7 °C 30.07in /  1018.2hPa NW 4mph /  6.4km/h 8mph /  12.9km/h 73.4% 0.00in /  0mm 371 W/m2
09:09 56.3 °F /  13.5 °C 48.1 °F /  8.9 °C 30.08in /  1018.5hPa NNW 2.9mph /  4.7km/h 7mph /  11.3km/h 73.8% 0.00in /  0mm 306 W/m2
09:14 56.3 °F /  13.5 °C 47.8 °F /  8.8 °C 30.08in /  1018.5hPa NW 4.8mph /  7.7km/h 9mph /  14.5km/h 73% 0.00in /  0mm 390 W/m2
09:19 56.5 °F /  13.6 °C 48.1 °F /  8.9 °C 30.08in /  1018.5hPa NNW 4.5mph /  7.2km/h 9mph /  14.5km/h 73.4% 0.00in /  0mm 355 W/m2
09:24 56.8 °F /  13.8 °C 48.3 °F /  9.1 °C 30.08in /  1018.5hPa NNW 4.8mph /  7.7km/h 9mph /  14.5km/h 73.4% 0.00in /  0mm 329 W/m2
09:29 56.8 °F /  13.8 °C 48.2 °F /  9 °C 30.08in /  1018.5hPa NNW 4.5mph /  7.2km/h 10mph /  16.1km/h 73.2% 0.00in /  0mm 281 W/m2
09:34 56.8 °F /  13.8 °C 48 °F /  8.9 °C 30.08in /  1018.5hPa NNW 4.4mph /  7.1km/h 9mph /  14.5km/h 72.6% 0.00in /  0mm 366 W/m2
09:39 56.9 °F /  13.8 °C 48.3 °F /  9.1 °C 30.08in /  1018.5hPa North 2.7mph /  4.3km/h 8mph /  12.9km/h 73% 0.00in /  0mm 302 W/m2
09:44 57 °F /  13.9 °C 48.4 °F /  9.1 °C 30.08in /  1018.5hPa North 4.1mph /  6.6km/h 9mph /  14.5km/h 73% 0.00in /  0mm 251 W/m2
09:49 57.3 °F /  14.1 °C 48.6 °F /  9.2 °C 30.08in /  1018.5hPa NW 2.1mph /  3.4km/h 5mph /  8km/h 73% 0.00in /  0mm 251 W/m2
09:54 57.6 °F /  14.2 °C 49.3 °F /  9.6 °C 30.08in /  1018.5hPa WNW 4.3mph /  6.9km/h 9mph /  14.5km/h 73.8% 0.00in /  0mm 267 W/m2
09:59 57.2 °F /  14 °C 47.9 °F /  8.8 °C 30.08in /  1018.5hPa North 3.8mph /  6.1km/h 9mph /  14.5km/h 71.2% 0.00in /  0mm 288 W/m2
10:04 57.5 °F /  14.2 °C 48.2 °F /  9 °C 30.09in /  1018.8hPa NNW 4mph /  6.4km/h 9mph /  14.5km/h 71% 0.00in /  0mm 260 W/m2
10:09 57.5 °F /  14.2 °C 47.8 °F /  8.8 °C 30.09in /  1018.8hPa North 5mph /  8km/h 9mph /  14.5km/h 70% 0.00in /  0mm 279 W/m2
10:14 57.5 °F /  14.2 °C 47.8 °F /  8.8 °C 30.09in /  1018.8hPa NNE 4.5mph /  7.2km/h 10mph /  16.1km/h 70% 0.00in /  0mm 316 W/m2
10:19 57.6 °F /  14.2 °C 47.1 °F /  8.4 °C 30.09in /  1018.8hPa North 6.1mph /  9.8km/h 10mph /  16.1km/h 67.8% 0.01in /  0.25mm 297 W/m2
10:24 57.5 °F /  14.2 °C 46.7 °F /  8.2 °C 30.09in /  1018.8hPa NNW 4.5mph /  7.2km/h 8mph /  12.9km/h 67% 0.01in /  0.25mm 306 W/m2
10:29 57.6 °F /  14.2 °C 47 °F /  8.3 °C 30.09in /  1018.8hPa NNW 2.5mph /  4km/h 7mph /  11.3km/h 67.5% 0.01in /  0.25mm 297 W/m2
10:34 58.1 °F /  14.5 °C 47.5 °F /  8.6 °C 30.09in /  1018.8hPa NNE 3.8mph /  6.1km/h 7mph /  11.3km/h 67.8% 0.01in /  0.25mm 339 W/m2
10:39 58.3 °F /  14.6 °C 47.9 °F /  8.8 °C 30.09in /  1018.8hPa NNW 3.5mph /  5.6km/h 8mph /  12.9km/h 68.2% 0.01in /  0.25mm 320 W/m2
10:44 58 °F /  14.4 °C 48.7 °F /  9.3 °C 30.09in /  1018.8hPa NW 3.3mph /  5.3km/h 9mph /  14.5km/h 71.2% 0.01in /  0.25mm 255 W/m2
10:49 58.1 °F /  14.5 °C 49 °F /  9.4 °C 30.10in /  1019.2hPa NW 7mph /  11.3km/h 12mph /  19.3km/h 71.8% 0.01in /  0.25mm 244 W/m2
10:54 57.9 °F /  14.4 °C 48.8 °F /  9.3 °C 30.10in /  1019.2hPa NW 4.8mph /  7.7km/h 12mph /  19.3km/h 71.6% 0.01in /  0.25mm 232 W/m2
10:59 58.1 °F /  14.5 °C 49.1 °F /  9.5 °C 30.10in /  1019.2hPa NW 3.8mph /  6.1km/h 9mph /  14.5km/h 72% 0.01in /  0.25mm 297 W/m2
11:04 58.2 °F /  14.6 °C 49 °F /  9.4 °C 30.10in /  1019.2hPa NNW 4.7mph /  7.6km/h 9mph /  14.5km/h 71.6% 0.01in /  0.25mm 352 W/m2
11:09 58.3 °F /  14.6 °C 49.1 °F /  9.5 °C 30.10in /  1019.2hPa NNW 3.1mph /  5km/h 9mph /  14.5km/h 71.4% 0.01in /  0.25mm 302 W/m2
11:14 58.8 °F /  14.9 °C 49.8 °F /  9.9 °C 30.10in /  1019.2hPa NNW 3.7mph /  6km/h 7mph /  11.3km/h 72% 0.01in /  0.25mm 339 W/m2
11:19 58.8 °F /  14.9 °C 49.2 °F /  9.6 °C 30.10in /  1019.2hPa North 5.6mph /  9km/h 14mph /  22.5km/h 70.2% 0.01in /  0.25mm 316 W/m2
11:24 58.6 °F /  14.8 °C 49 °F /  9.4 °C 30.10in /  1019.2hPa NNW 4.4mph /  7.1km/h 9mph /  14.5km/h 70.2% 0.00in /  0mm 343 W/m2
11:29 59 °F /  15 °C 49.3 °F /  9.6 °C 30.10in /  1019.2hPa NNW 3.2mph /  5.1km/h 8mph /  12.9km/h 70% 0.00in /  0mm 396 W/m2
11:34 59.4 °F /  15.2 °C 49.5 °F /  9.7 °C 30.10in /  1019.2hPa NNW 5.4mph /  8.7km/h 11mph /  17.7km/h 69.8% 0.00in /  0mm 373 W/m2
11:39 59.3 °F /  15.2 °C 49 °F /  9.4 °C 30.10in /  1019.2hPa NNW 6.6mph /  10.6km/h 11mph /  17.7km/h 68.8% 0.00in /  0mm 202 W/m2
11:44 58.9 °F /  14.9 °C 48.2 °F /  9 °C 30.10in /  1019.2hPa NNW 5.9mph /  9.5km/h 13mph /  20.9km/h 67.8% 0.00in /  0mm 267 W/m2
11:49 58.9 °F /  14.9 °C 47.7 °F /  8.7 °C 30.11in /  1019.5hPa NW 5.4mph /  8.7km/h 10mph /  16.1km/h 66.6% 0.00in /  0mm 330 W/m2
11:54 59.1 °F /  15.1 °C 47 °F /  8.3 °C 30.11in /  1019.5hPa NNW 8.5mph /  13.7km/h 15mph /  24.1km/h 64.2% 0.00in /  0mm 357 W/m2
11:59 59.3 °F /  15.2 °C 46.7 °F /  8.2 °C 30.11in /  1019.5hPa NNW 8.6mph /  13.8km/h 14mph /  22.5km/h 63% 0.00in /  0mm 452 W/m2
12:04 59.7 °F /  15.4 °C 47.2 °F /  8.4 °C 30.11in /  1019.5hPa NNW 4.3mph /  6.9km/h 11mph /  17.7km/h 63.2% 0.00in /  0mm 580 W/m2
12:09 60.1 °F /  15.6 °C 46.6 °F /  8.1 °C 30.11in /  1019.5hPa NW 9.1mph /  14.6km/h 17mph /  27.4km/h 61% 0.00in /  0mm 612 W/m2
12:14 60.3 °F /  15.7 °C 46.8 °F /  8.2 °C 30.11in /  1019.5hPa NW 8.2mph /  13.2km/h 14mph /  22.5km/h 61% 0.00in /  0mm 701 W/m2
12:19 60.4 °F /  15.8 °C 46.8 °F /  8.2 °C 30.11in /  1019.5hPa NNW 7.6mph /  12.2km/h 12mph /  19.3km/h 60.6% 0.00in /  0mm 687 W/m2
12:23 60.4 °F /  15.8 °C 47.3 °F /  8.5 °C 30.11in /  1019.5hPa NW 5.7mph /  9.2km/h 13mph /  20.9km/h 62% 0.00in /  0mm 214 W/m2
12:29 60 °F /  15.6 °C 47.5 °F /  8.6 °C 30.12in /  1019.9hPa NNW 7mph /  11.3km/h 12mph /  19.3km/h 63.2% 0.00in /  0mm 315 W/m2
12:34 59.8 °F /  15.4 °C 47.8 °F /  8.8 °C 30.11in /  1019.5hPa NNW 5.6mph /  9km/h 11mph /  17.7km/h 64.4% 0.00in /  0mm 445 W/m2
12:39 60.1 °F /  15.6 °C 47.7 °F /  8.7 °C 30.11in /  1019.5hPa WNW 4.2mph /  6.8km/h 11mph /  17.7km/h 63.6% 0.00in /  0mm 411 W/m2
12:44 59.9 °F /  15.5 °C 47.4 °F /  8.6 °C 30.11in /  1019.5hPa NW 4.5mph /  7.2km/h 12mph /  19.3km/h 63.2% 0.00in /  0mm 438 W/m2
12:49 60.1 °F /  15.6 °C 47.9 °F /  8.8 °C 30.12in /  1019.9hPa NW 5mph /  8km/h 9mph /  14.5km/h 64.2% 0.00in /  0mm 557 W/m2
12:54 60.4 °F /  15.8 °C 48.1 °F /  8.9 °C 30.12in /  1019.9hPa NW 4.4mph /  7.1km/h 11mph /  17.7km/h 63.8% 0.00in /  0mm 645 W/m2
12:59 61 °F /  16.1 °C 47.4 °F /  8.6 °C 30.12in /  1019.9hPa NW 5.7mph /  9.2km/h 14mph /  22.5km/h 61% 0.00in /  0mm 645 W/m2
13:03 60.6 °F /  15.9 °C 47.1 °F /  8.4 °C 30.12in /  1019.9hPa WNW 7.2mph /  11.6km/h 14mph /  22.5km/h 61% 0.00in /  0mm 645 W/m2
13:09 60.6 °F /  15.9 °C 47.1 °F /  8.4 °C 30.12in /  1019.9hPa WNW 6.6mph /  10.6km/h 13mph /  20.9km/h 61.2% 0.00in /  0mm 476 W/m2
13:14 60.8 °F /  16 °C 47.3 °F /  8.5 °C 30.12in /  1019.9hPa WNW 5.4mph /  8.7km/h 12mph /  19.3km/h 61.2% 0.00in /  0mm 443 W/m2
13:19 61.2 °F /  16.2 °C 48.2 °F /  9 °C 30.12in /  1019.9hPa NW 4.9mph /  7.9km/h 13mph /  20.9km/h 62.4% 0.00in /  0mm 1062 W/m2
13:24 61.7 °F /  16.5 °C 48.3 °F /  9.1 °C 30.12in /  1019.9hPa NW 8mph /  12.9km/h 12mph /  19.3km/h 61.3% 0.00in /  0mm 1071 W/m2
13:29 62.4 °F /  16.9 °C 47.9 °F /  8.8 °C 30.12in /  1019.9hPa NW 5.4mph /  8.7km/h 12mph /  19.3km/h 59% 0.00in /  0mm 1071 W/m2
13:34 62.3 °F /  16.8 °C 47.8 °F /  8.8 °C 30.12in /  1019.9hPa NW 7.2mph /  11.6km/h 13mph /  20.9km/h 59% 0.00in /  0mm 696 W/m2
13:39 62.8 °F /  17.1 °C 48.4 °F /  9.1 °C 30.12in /  1019.9hPa NNW 3.7mph /  6km/h 13mph /  20.9km/h 59.2% 0.00in /  0mm 696 W/m2
13:44 62.4 °F /  16.9 °C 47.9 °F /  8.8 °C 30.12in /  1019.9hPa NW 4.7mph /  7.6km/h 15mph /  24.1km/h 59% 0.00in /  0mm 443 W/m2
13:49 61.6 °F /  16.4 °C 47.7 °F /  8.7 °C 30.12in /  1019.9hPa NW 8.2mph /  13.2km/h 12mph /  19.3km/h 60.2% 0.00in /  0mm 399 W/m2
13:54 61.2 °F /  16.2 °C 48.2 °F /  9 °C 30.12in /  1019.9hPa NNW 5mph /  8km/h 12mph /  19.3km/h 62.4% 0.00in /  0mm 396 W/m2
13:58 61.3 °F /  16.3 °C 48.6 °F /  9.2 °C 30.12in /  1019.9hPa NNW 7.6mph /  12.2km/h 14mph /  22.5km/h 63% 0.00in /  0mm 445 W/m2
14:04 61.4 °F /  16.3 °C 48.8 °F /  9.3 °C 30.12in /  1019.9hPa North 6.4mph /  10.3km/h 12mph /  19.3km/h 63.2% 0.00in /  0mm 1049 W/m2
14:09 62.1 °F /  16.7 °C 49.1 °F /  9.5 °C 30.12in /  1019.9hPa NNW 4.7mph /  7.6km/h 14mph /  22.5km/h 62.6% 0.00in /  0mm 1025 W/m2
14:14 62.3 °F /  16.8 °C 48.8 °F /  9.3 °C 30.13in /  1020.2hPa NNW 9.1mph /  14.6km/h 14mph /  22.5km/h 61.5% 0.00in /  0mm 1074 W/m2
14:19 62.2 °F /  16.8 °C 49.4 °F /  9.7 °C 30.13in /  1020.2hPa WNW 6mph /  9.7km/h 14mph /  22.5km/h 63.2% 0.00in /  0mm 1074 W/m2
14:24 62.8 °F /  17.1 °C 49.5 °F /  9.7 °C 30.12in /  1019.9hPa West 6.6mph /  10.6km/h 13mph /  20.9km/h 62% 0.00in /  0mm 512 W/m2
14:28 62.8 °F /  17.1 °C 49.2 °F /  9.6 °C 30.12in /  1019.9hPa West 5.8mph /  9.3km/h 10mph /  16.1km/h 61.3% 0.00in /  0mm 397 W/m2
14:34 63.2 °F /  17.3 °C 49.8 °F /  9.9 °C 30.12in /  1019.9hPa WNW 9.4mph /  15.1km/h 16mph /  25.7km/h 61.6% 0.00in /  0mm 1046 W/m2
14:39 63.2 °F /  17.3 °C 48.6 °F /  9.2 °C 30.13in /  1020.2hPa WNW 8.2mph /  13.2km/h 17mph /  27.4km/h 58.6% 0.00in /  0mm 1032 W/m2
14:44 62.6 °F /  17 °C 47.7 °F /  8.7 °C 30.13in /  1020.2hPa NW 4.8mph /  7.7km/h 12mph /  19.3km/h 58% 0.00in /  0mm 1032 W/m2
14:49 62.4 °F /  16.9 °C 48.5 °F /  9.2 °C 30.13in /  1020.2hPa WNW 5.4mph /  8.7km/h 10mph /  16.1km/h 60.2% 0.00in /  0mm 302 W/m2
14:54 62.4 °F /  16.9 °C 48.3 °F /  9.1 °C 30.13in /  1020.2hPa NW 5.3mph /  8.5km/h 11mph /  17.7km/h 60% 0.00in /  0mm 271 W/m2
14:59 62.3 °F /  16.8 °C 48.2 °F /  9 °C 30.13in /  1020.2hPa NW 6.7mph /  10.8km/h 13mph /  20.9km/h 60% 0.00in /  0mm 309 W/m2
15:04 62.2 °F /  16.8 °C 48.9 °F /  9.4 °C 30.13in /  1020.2hPa West 7.5mph /  12.1km/h 13mph /  20.9km/h 61.6% 0.00in /  0mm 276 W/m2
15:09 62.1 °F /  16.7 °C 49 °F /  9.4 °C 30.13in /  1020.2hPa WNW 7mph /  11.3km/h 14mph /  22.5km/h 62% 0.00in /  0mm 327 W/m2
15:14 62.2 °F /  16.8 °C 48.7 °F /  9.3 °C 30.13in /  1020.2hPa WNW 7.5mph /  12.1km/h 11mph /  17.7km/h 61.4% 0.00in /  0mm 348 W/m2
15:19 62.3 °F /  16.8 °C 48.8 °F /  9.3 °C 30.13in /  1020.2hPa WNW 6.1mph /  9.8km/h 12mph /  19.3km/h 61.2% 0.00in /  0mm 352 W/m2
15:24 62.1 °F /  16.7 °C 48.6 °F /  9.2 °C 30.13in /  1020.2hPa WNW 5.2mph /  8.4km/h 11mph /  17.7km/h 61.4% 0.00in /  0mm 304 W/m2
15:29 62.2 °F /  16.8 °C 48.4 °F /  9.1 °C 30.14in /  1020.5hPa NW 5.8mph /  9.3km/h 12mph /  19.3km/h 60.6% 0.00in /  0mm 290 W/m2
15:34 62.2 °F /  16.8 °C 47.5 °F /  8.6 °C 30.14in /  1020.5hPa WNW 6.2mph /  10km/h 12mph /  19.3km/h 58.6% 0.00in /  0mm 258 W/m2
15:39 62.4 °F /  16.9 °C 47.7 °F /  8.7 °C 30.14in /  1020.5hPa NW 4.8mph /  7.7km/h 9mph /  14.5km/h 58.6% 0.00in /  0mm 390 W/m2
15:44 62.4 °F /  16.9 °C 47.6 °F /  8.7 °C 30.14in /  1020.5hPa NW 5.4mph /  8.7km/h 9mph /  14.5km/h 58.2% 0.00in /  0mm 376 W/m2
15:49 62.4 °F /  16.9 °C 47.1 °F /  8.4 °C 30.14in /  1020.5hPa NW 7.9mph /  12.7km/h 10mph /  16.1km/h 57.4% 0.00in /  0mm 336 W/m2
15:54 62.4 °F /  16.9 °C 47.7 °F /  8.7 °C 30.14in /  1020.5hPa NW 3.9mph /  6.3km/h 11mph /  17.7km/h 58.8% 0.00in /  0mm 244 W/m2
15:59 62.4 °F /  16.9 °C 48.4 °F /  9.1 °C 30.14in /  1020.5hPa WNW 4.5mph /  7.2km/h 9mph /  14.5km/h 60% 0.00in /  0mm 130 W/m2
16:04 62.2 °F /  16.8 °C 48.8 °F /  9.3 °C 30.14in /  1020.5hPa NW 5.4mph /  8.7km/h 11mph /  17.7km/h 61.4% 0.00in /  0mm 144 W/m2
16:09 61.7 °F /  16.5 °C 48.6 °F /  9.2 °C 30.14in /  1020.5hPa NW 7mph /  11.3km/h 12mph /  19.3km/h 62.2% 0.00in /  0mm 135 W/m2
16:14 61.3 °F /  16.3 °C 48.6 °F /  9.2 °C 30.14in /  1020.5hPa NW 4.3mph /  6.9km/h 10mph /  16.1km/h 63% 0.00in /  0mm 229 W/m2
16:19 61.6 °F /  16.4 °C 49.3 °F /  9.6 °C 30.14in /  1020.5hPa WNW 3.4mph /  5.5km/h 9mph /  14.5km/h 63.8% 0.00in /  0mm 271 W/m2
16:24 62.1 °F /  16.7 °C 49.7 °F /  9.8 °C 30.14in /  1020.5hPa NW 4mph /  6.4km/h 10mph /  16.1km/h 63.8% 0.00in /  0mm 218 W/m2
16:29 61.8 °F /  16.6 °C 49.1 °F /  9.5 °C 30.14in /  1020.5hPa NW 5.8mph /  9.3km/h 10mph /  16.1km/h 63.2% 0.00in /  0mm 174 W/m2
16:33 61.5 °F /  16.4 °C 48.8 °F /  9.3 °C 30.14in /  1020.5hPa WNW 5.8mph /  9.3km/h 10mph /  16.1km/h 63.3% 0.00in /  0mm 178 W/m2
16:39 61.7 °F /  16.5 °C 49.5 °F /  9.7 °C 30.14in /  1020.5hPa NW 2.5mph /  4km/h 10mph /  16.1km/h 64% 0.00in /  0mm 283 W/m2
16:44 62.1 °F /  16.7 °C 49.6 °F /  9.8 °C 30.14in /  1020.5hPa NW 4.6mph /  7.4km/h 10mph /  16.1km/h 63.6% 0.00in /  0mm 262 W/m2
16:49 62.1 °F /  16.7 °C 49.7 °F /  9.8 °C 30.14in /  1020.5hPa NNW 3.3mph /  5.3km/h 6mph /  9.7km/h 63.8% 0.00in /  0mm 229 W/m2
16:54 62.1 °F /  16.7 °C 49.8 °F /  9.9 °C 30.14in /  1020.5hPa NNW 4.8mph /  7.7km/h 11mph /  17.7km/h 64% 0.00in /  0mm 214 W/m2
16:59 61.9 °F /  16.6 °C 49.9 °F /  9.9 °C 30.14in /  1020.5hPa NW 3mph /  4.8km/h 6mph /  9.7km/h 64.8% 0.00in /  0mm 178 W/m2
17:04 62.1 °F /  16.7 °C 50.2 °F /  10.1 °C 30.14in /  1020.5hPa NW 1.5mph /  2.4km/h 5mph /  8km/h 65% 0.00in /  0mm 167 W/m2
17:09 62.1 °F /  16.7 °C 50 °F /  10 °C 30.14in /  1020.5hPa NW 3.6mph /  5.8km/h 8mph /  12.9km/h 64.6% 0.00in /  0mm 149 W/m2
17:14 62.1 °F /  16.7 °C 50.3 °F /  10.2 °C 30.14in /  1020.5hPa NW 2.4mph /  3.9km/h 5mph /  8km/h 65.4% 0.00in /  0mm 308 W/m2
17:19 62.2 °F /  16.8 °C 50.5 °F /  10.3 °C 30.14in /  1020.5hPa NW 3.4mph /  5.5km/h 8mph /  12.9km/h 65.4% 0.00in /  0mm 234 W/m2
17:24 62.4 °F /  16.9 °C 50.1 °F /  10.1 °C 30.14in /  1020.5hPa NW 3.2mph /  5.1km/h 8mph /  12.9km/h 64% 0.00in /  0mm 714 W/m2
17:29 63 °F /  17.2 °C 50.2 °F /  10.1 °C 30.14in /  1020.5hPa WNW 4mph /  6.4km/h 8mph /  12.9km/h 62.8% 0.00in /  0mm 698 W/m2
17:34 63.1 °F /  17.3 °C 50.3 °F /  10.2 °C 30.14in /  1020.5hPa WNW 2.5mph /  4km/h 7mph /  11.3km/h 62.8% 0.00in /  0mm 167 W/m2
17:39 62.9 °F /  17.2 °C 50.1 °F /  10.1 °C 30.14in /  1020.5hPa NW 3mph /  4.8km/h 7mph /  11.3km/h 63% 0.00in /  0mm 165 W/m2
17:44 62.8 °F /  17.1 °C 50.1 °F /  10.1 °C 30.14in /  1020.5hPa NW 3.3mph /  5.3km/h 7mph /  11.3km/h 63.2% 0.00in /  0mm 199 W/m2
17:49 63 °F /  17.2 °C 50.1 °F /  10.1 °C 30.14in /  1020.5hPa North 1.8mph /  2.9km/h 7mph /  11.3km/h 62.8% 0.00in /  0mm 561 W/m2
17:54 63.8 °F /  17.7 °C 50.3 °F /  10.2 °C 30.14in /  1020.5hPa NNW 4.3mph /  6.9km/h 9mph /  14.5km/h 61.6% 0.00in /  0mm 373 W/m2
17:59 63.5 °F /  17.5 °C 49.7 °F /  9.8 °C 30.14in /  1020.5hPa NW 4.4mph /  7.1km/h 9mph /  14.5km/h 60.8% 0.00in /  0mm 241 W/m2
18:04 63.5 °F /  17.5 °C 49.5 °F /  9.7 °C 30.14in /  1020.5hPa North 5.4mph /  8.7km/h 10mph /  16.1km/h 60.4% 0.00in /  0mm 617 W/m2
18:09 63.7 °F /  17.6 °C 49.5 °F /  9.7 °C 30.15in /  1020.9hPa North 6.7mph /  10.8km/h 11mph /  17.7km/h 60% 0.00in /  0mm 534 W/m2
18:14 63.1 °F /  17.3 °C 49.4 °F /  9.7 °C 30.15in /  1020.9hPa NNW 4.7mph /  7.6km/h 8mph /  12.9km/h 61% 0.00in /  0mm 111 W/m2
18:19 62.6 °F /  17 °C 49.7 °F /  9.8 °C 30.15in /  1020.9hPa NNW 3.7mph /  6km/h 8mph /  12.9km/h 62.8% 0.00in /  0mm 97 W/m2
18:24 62.2 °F /  16.8 °C 49.9 °F /  9.9 °C 30.15in /  1020.9hPa NNW 4.4mph /  7.1km/h 8mph /  12.9km/h 63.8% 0.00in /  0mm 100 W/m2
18:29 62 °F /  16.7 °C 49.6 °F /  9.8 °C 30.15in /  1020.9hPa NNW 3.4mph /  5.5km/h 8mph /  12.9km/h 63.8% 0.00in /  0mm 86 W/m2
18:34 62.1 °F /  16.7 °C 50.1 °F /  10.1 °C 30.15in /  1020.9hPa NNW 2.8mph /  4.5km/h 8mph /  12.9km/h 64.6% 0.00in /  0mm 399 W/m2
18:44 63.1 °F /  17.3 °C 49.8 °F /  9.9 °C 30.16in /  1021.2hPa NW 4mph /  6.4km/h 6mph /  9.7km/h 62% 0.00in /  0mm 149 W/m2
18:49 62.7 °F /  17.1 °C 49.7 °F /  9.8 °C 30.16in /  1021.2hPa NNW 3.9mph /  6.3km/h 11mph /  17.7km/h 62.4% 0.00in /  0mm 100 W/m2
18:54 62.5 °F /  16.9 °C 49.7 °F /  9.8 °C 30.16in /  1021.2hPa NNW 5.4mph /  8.7km/h 9mph /  14.5km/h 63% 0.00in /  0mm 97 W/m2
18:59 62.1 °F /  16.7 °C 49.7 °F /  9.8 °C 30.16in /  1021.2hPa NNW 5.6mph /  9km/h 9mph /  14.5km/h 63.8% 0.00in /  0mm 86 W/m2
19:04 62.1 °F /  16.7 °C 49.8 °F /  9.9 °C 30.16in /  1021.2hPa NNW 4.1mph /  6.6km/h 9mph /  14.5km/h 64.2% 0.00in /  0mm 76 W/m2
19:09 61.9 °F /  16.6 °C 50 °F /  10 °C 30.17in /  1021.6hPa NNW 4.2mph /  6.8km/h 8mph /  12.9km/h 65% 0.00in /  0mm 91 W/m2
19:14 61.9 °F /  16.6 °C 50 °F /  10 °C 30.17in /  1021.6hPa North 4mph /  6.4km/h 6mph /  9.7km/h 65% 0.00in /  0mm 100 W/m2
19:19 61.8 °F /  16.6 °C 50.2 °F /  10.1 °C 30.17in /  1021.6hPa NNW 3.2mph /  5.1km/h 6mph /  9.7km/h 65.5% 0.00in /  0mm 90 W/m2
19:24 62 °F /  16.7 °C 50.4 °F /  10.2 °C 30.17in /  1021.6hPa North 1.8mph /  2.9km/h 6mph /  9.7km/h 66% 0.00in /  0mm 274 W/m2
19:29 62.4 °F /  16.9 °C 50.5 °F /  10.3 °C 30.17in /  1021.6hPa North 2.4mph /  3.9km/h 6mph /  9.7km/h 65% 0.00in /  0mm 279 W/m2
19:34 63 °F /  17.2 °C 50.7 °F /  10.4 °C 30.16in /  1021.2hPa NNE 4mph /  6.4km/h 9mph /  14.5km/h 64.2% 0.00in /  0mm 287 W/m2
19:39 63 °F /  17.2 °C 50.7 °F /  10.4 °C 30.17in /  1021.6hPa North 3.3mph /  5.3km/h 7mph /  11.3km/h 64.2% 0.00in /  0mm 248 W/m2
19:44 62.8 °F /  17.1 °C 50.9 °F /  10.5 °C 30.17in /  1021.6hPa North 2.1mph /  3.4km/h 5mph /  8km/h 65% 0.00in /  0mm 146 W/m2
19:49 63 °F /  17.2 °C 50.9 °F /  10.5 °C 30.17in /  1021.6hPa North 2.4mph /  3.9km/h 7mph /  11.3km/h 64.8% 0.00in /  0mm 190 W/m2
19:54 62.8 °F /  17.1 °C 50.4 °F /  10.2 °C 30.17in /  1021.6hPa North 5.4mph /  8.7km/h 11mph /  17.7km/h 64% 0.00in /  0mm 181 W/m2
19:59 62.4 °F /  16.9 °C 50 °F /  10 °C 30.17in /  1021.6hPa North 4.9mph /  7.9km/h 9mph /  14.5km/h 64% 0.00in /  0mm 155 W/m2
20:04 62.4 °F /  16.9 °C 50.3 °F /  10.2 °C 30.17in /  1021.6hPa North 4mph /  6.4km/h 9mph /  14.5km/h 64.6% 0.00in /  0mm 142 W/m2
20:09 62.2 °F /  16.8 °C 50.4 °F /  10.2 °C 30.17in /  1021.6hPa North 4.8mph /  7.7km/h 11mph /  17.7km/h 65% 0.00in /  0mm 42 W/m2
20:14 61.5 °F /  16.4 °C 49.9 °F /  9.9 °C 30.18in /  1021.9hPa North 5.8mph /  9.3km/h 11mph /  17.7km/h 65.8% 0.00in /  0mm 90 W/m2
20:19 61.2 °F /  16.2 °C 49.8 °F /  9.9 °C 30.17in /  1021.6hPa North 4.2mph /  6.8km/h 7mph /  11.3km/h 66.2% 0.00in /  0mm 76 W/m2
20:24 61.2 °F /  16.2 °C 50.2 °F /  10.1 °C 30.18in /  1021.9hPa North 2.9mph /  4.7km/h 5mph /  8km/h 67% 0.00in /  0mm 62 W/m2
20:29 61.2 °F /  16.2 °C 50.5 °F /  10.3 °C 30.18in /  1021.9hPa NNW 0.6mph /  1km/h 4mph /  6.4km/h 67.8% 0.00in /  0mm 56 W/m2
20:34 61.3 °F /  16.3 °C 50.6 °F /  10.3 °C 30.18in /  1021.9hPa North 2.1mph /  3.4km/h 5mph /  8km/h 68% 0.00in /  0mm 44 W/m2
20:39 60.9 °F /  16.1 °C 50.3 °F /  10.2 °C 30.18in /  1021.9hPa NNE 2.7mph /  4.3km/h 5mph /  8km/h 68% 0.00in /  0mm 39 W/m2
20:44 60.7 °F /  15.9 °C 50.1 °F /  10.1 °C 30.18in /  1021.9hPa North 2.8mph /  4.5km/h 6mph /  9.7km/h 68% 0.00in /  0mm 30 W/m2
20:49 60.5 °F /  15.8 °C 50.2 °F /  10.1 °C 30.18in /  1021.9hPa NNW 2.7mph /  4.3km/h 6mph /  9.7km/h 68.8% 0.00in /  0mm 23 W/m2
20:54 60.3 °F /  15.7 °C 50.1 °F /  10.1 °C 30.18in /  1021.9hPa North 2.3mph /  3.7km/h 6mph /  9.7km/h 69% 0.00in /  0mm 19 W/m2
20:59 60.2 °F /  15.7 °C 49.9 °F /  9.9 °C 30.18in /  1021.9hPa North 2.1mph /  3.4km/h 5mph /  8km/h 69% 0.00in /  0mm 18 W/m2
21:04 59.9 °F /  15.5 °C 49.8 °F /  9.9 °C 30.18in /  1021.9hPa North 1.4mph /  2.3km/h 4mph /  6.4km/h 69.4% 0.00in /  0mm 14 W/m2
21:09 59.5 °F /  15.3 °C 49.7 °F /  9.8 °C 30.19in /  1022.2hPa North 0.6mph /  1km/h 3mph /  4.8km/h 70% 0.00in /  0mm 12 W/m2
21:14 59.3 °F /  15.2 °C 49.8 °F /  9.9 °C 30.19in /  1022.2hPa Calm   3mph /  4.8km/h 70.6% 0.00in /  0mm 11 W/m2
21:19 59 °F /  15 °C 49.6 °F /  9.8 °C 30.19in /  1022.2hPa Calm     71% 0.00in /  0mm 7 W/m2
21:24 58.6 °F /  14.8 °C 49.6 °F /  9.8 °C 30.19in /  1022.2hPa North 1.8mph /  2.9km/h 3mph /  4.8km/h 72% 0.00in /  0mm 5 W/m2
21:29 58.4 °F /  14.7 °C 49.6 °F /  9.8 °C 30.19in /  1022.2hPa North 1.2mph /  1.9km/h 3mph /  4.8km/h 72.6% 0.00in /  0mm 0 W/m2
21:34 58 °F /  14.4 °C 49.4 °F /  9.7 °C 30.19in /  1022.2hPa Calm   3mph /  4.8km/h 73% 0.00in /  0mm 0 W/m2
21:39 57.7 °F /  14.3 °C 49.4 °F /  9.7 °C 30.20in /  1022.6hPa North 1.4mph /  2.3km/h 4mph /  6.4km/h 73.6% 0.00in /  0mm 0 W/m2
21:44 57.5 °F /  14.2 °C 49.2 °F /  9.6 °C 30.20in /  1022.6hPa North 0.8mph /  1.3km/h 3mph /  4.8km/h 74% 0.00in /  0mm 0 W/m2
21:49 57.2 °F /  14 °C 48.9 °F /  9.4 °C 30.20in /  1022.6hPa North 2.3mph /  3.7km/h 3mph /  4.8km/h 74% 0.00in /  0mm 0 W/m2
21:54 56.9 °F /  13.8 °C 48.6 °F /  9.2 °C 30.21in /  1022.9hPa North 1.2mph /  1.9km/h 3mph /  4.8km/h 74% 0.00in /  0mm 0 W/m2
21:59 56.8 °F /  13.8 °C 48.5 °F /  9.2 °C 30.21in /  1022.9hPa North 1.8mph /  2.9km/h 3mph /  4.8km/h 74% 0.00in /  0mm 0 W/m2
22:04 56.7 °F /  13.7 °C 48.4 °F /  9.1 °C 30.21in /  1022.9hPa North 2.1mph /  3.4km/h 3mph /  4.8km/h 74% 0.00in /  0mm 0 W/m2
22:09 56.4 °F /  13.6 °C 48.3 °F /  9.1 °C 30.22in /  1023.2hPa North 2.2mph /  3.5km/h 4mph /  6.4km/h 74% 0.00in /  0mm 0 W/m2
22:14 56.1 °F /  13.4 °C 48.2 °F /  9 °C 30.22in /  1023.2hPa North 2mph /  3.2km/h 4mph /  6.4km/h 74.5% 0.00in /  0mm 0 W/m2
22:19 56 °F /  13.3 °C 48.3 °F /  9.1 °C 30.22in /  1023.2hPa North 3.1mph /  5km/h 5mph /  8km/h 75% 0.00in /  0mm 0 W/m2
22:24 55.9 °F /  13.3 °C 48.1 °F /  8.9 °C 30.22in /  1023.2hPa North 3.2mph /  5.1km/h 5mph /  8km/h 75% 0.00in /  0mm 0 W/m2
22:29 55.7 °F /  13.2 °C 47.9 °F /  8.8 °C 30.22in /  1023.2hPa NNW 2.7mph /  4.3km/h 6mph /  9.7km/h 75% 0.00in /  0mm 0 W/m2
22:34 55.5 °F /  13.1 °C 47.7 °F /  8.7 °C 30.22in /  1023.2hPa NNW 2.7mph /  4.3km/h 4mph /  6.4km/h 75% 0.00in /  0mm 0 W/m2
22:39 55.3 °F /  12.9 °C 47.7 °F /  8.7 °C 30.23in /  1023.6hPa NNW 1.4mph /  2.3km/h 4mph /  6.4km/h 75.4% 0.00in /  0mm 0 W/m2
22:44 55.1 °F /  12.8 °C 47.8 °F /  8.8 °C 30.23in /  1023.6hPa North 0.6mph /  1km/h 3mph /  4.8km/h 76% 0.00in /  0mm 0 W/m2
22:49 55 °F /  12.8 °C 47.7 °F /  8.7 °C 30.23in /  1023.6hPa North 2.5mph /  4km/h 4mph /  6.4km/h 76% 0.00in /  0mm 0 W/m2
22:54 55 °F /  12.8 °C 47.7 °F /  8.7 °C 30.24in /  1023.9hPa North 3mph /  4.8km/h 5mph /  8km/h 76% 0.00in /  0mm 0 W/m2
22:59 55 °F /  12.8 °C 47.5 °F /  8.6 °C 30.24in /  1023.9hPa North 2.8mph /  4.5km/h 5mph /  8km/h 75.6% 0.00in /  0mm 0 W/m2
23:04 54.9 °F /  12.7 °C 47.3 °F /  8.5 °C 30.24in /  1023.9hPa North 1.8mph /  2.9km/h 4mph /  6.4km/h 75.4% 0.00in /  0mm 0 W/m2
23:09 54.9 °F /  12.7 °C 47.4 °F /  8.6 °C 30.24in /  1023.9hPa North 0.2mph /  0.3km/h 3mph /  4.8km/h 75.8% 0.00in /  0mm 0 W/m2
23:19 54.5 °F /  12.5 °C 47.1 °F /  8.4 °C 30.24in /  1023.9hPa Calm     76% 0.00in /  0mm 0 W/m2
23:24 54.1 °F /  12.3 °C 46.7 °F /  8.2 °C 30.24in /  1023.9hPa Calm     76% 0.00in /  0mm 0 W/m2
23:29 53.9 °F /  12.2 °C 46.5 °F /  8.1 °C 30.24in /  1023.9hPa Calm     76% 0.00in /  0mm 0 W/m2
23:34 53.8 °F /  12.1 °C 46.5 °F /  8.1 °C 30.25in /  1024.3hPa Calm     76% 0.00in /  0mm 0 W/m2
23:39 53.8 °F /  12.1 °C 46.7 °F /  8.2 °C 30.25in /  1024.3hPa Calm     76.8% 0.00in /  0mm 0 W/m2
23:44 53.8 °F /  12.1 °C 46.8 °F /  8.2 °C 30.25in /  1024.3hPa Calm     77% 0.00in /  0mm 0 W/m2
23:49 53.5 °F /  11.9 °C 46.5 °F /  8.1 °C 30.25in /  1024.3hPa Calm     77% 0.00in /  0mm 0 W/m2
23:54 53.4 °F /  11.9 °C 46.4 °F /  8 °C 30.25in /  1024.3hPa Calm     77% 0.00in /  0mm 0 W/m2
23:59 53.2 °F /  11.8 °C 46.1 °F /  7.8 °C 30.25in /  1024.3hPa Calm     77% 0.00in /  0mm 0 W/m2
Bath Spa Weather
Compliments of Weather Underground - 2 mb